createdAt,value
2023-01-10T00:01:38.151Z,65.57
2023-01-10T00:04:04.713Z,65.64
2023-01-10T00:06:31.116Z,65.67
2023-01-10T00:08:57.661Z,65.51
2023-01-10T00:11:43.210Z,65.71
2023-01-10T00:14:11.223Z,65.28
2023-01-10T00:16:39.300Z,65.46
2023-01-10T00:19:07.137Z,65.46
2023-01-10T00:21:33.467Z,65.54
2023-01-10T00:24:16.630Z,65.43
2023-01-10T00:26:45.562Z,65.62
2023-01-10T00:29:12.199Z,65.52
2023-01-10T00:31:38.535Z,65.57
2023-01-10T00:34:05.096Z,65.33
2023-01-10T00:36:31.431Z,65.73
2023-01-10T00:38:57.819Z,65.55
2023-01-10T00:41:42.829Z,66.11
2023-01-10T00:44:09.289Z,65.67
2023-01-10T00:46:35.830Z,65.86
2023-01-10T00:49:05.403Z,65.85
2023-01-10T00:51:31.764Z,65.64
2023-01-10T00:53:58.168Z,65.93
2023-01-10T00:56:24.505Z,66.00
2023-01-10T00:58:50.938Z,65.82
2023-01-10T01:01:17.524Z,66.04
2023-01-10T01:03:43.928Z,65.94
2023-01-10T01:06:10.332Z,66.00
2023-01-10T01:08:36.770Z,65.80
2023-01-10T01:11:03.172Z,66.02
2023-01-10T01:13:29.740Z,65.66
2023-01-10T01:16:00.277Z,65.45
2023-01-10T01:18:27.345Z,65.44
2023-01-10T01:20:57.971Z,65.62
2023-01-10T01:23:24.711Z,65.77
2023-01-10T01:25:54.436Z,65.53
2023-01-10T01:28:21.902Z,65.76
2023-01-10T01:30:49.260Z,65.59
2023-01-10T01:33:16.420Z,65.65
2023-01-10T01:35:44.217Z,65.46
2023-01-10T01:38:11.092Z,65.76
2023-01-10T01:40:41.671Z,66.32
2023-01-10T01:43:31.978Z,66.20
2023-01-10T01:46:02.820Z,66.55
2023-01-10T01:48:41.317Z,66.63
2023-01-10T01:51:20.698Z,66.94
2023-01-10T01:53:56.993Z,67.02
2023-01-10T01:56:30.487Z,66.94
2023-01-10T01:59:06.643Z,66.61
2023-01-10T02:01:34.011Z,67.10
2023-01-10T02:04:08.545Z,66.86
2023-01-10T02:06:34.945Z,66.85
2023-01-10T02:09:32.450Z,66.58
2023-01-10T02:11:59.147Z,66.24
2023-01-10T02:14:26.500Z,66.43
2023-01-10T02:16:52.937Z,66.63
2023-01-10T02:19:43.262Z,66.22
2023-01-10T02:22:27.893Z,65.99
2023-01-10T02:25:23.116Z,65.89
2023-01-10T02:28:14.411Z,66.11
2023-01-10T02:31:19.509Z,65.78
2023-01-10T02:33:51.829Z,65.91
2023-01-10T02:36:56.584Z,65.79
2023-01-10T02:39:36.229Z,65.50
2023-01-10T02:42:13.519Z,65.87
2023-01-10T02:45:19.984Z,65.61
2023-01-10T02:47:46.428Z,65.68
2023-01-10T02:50:44.970Z,65.61
2023-01-10T02:53:11.334Z,65.34
2023-01-10T02:56:01.724Z,65.55
2023-01-10T02:58:40.269Z,65.39
2023-01-10T03:01:26.661Z,65.03
2023-01-10T03:04:11.922Z,65.08
2023-01-10T03:07:07.733Z,65.17
2023-01-10T03:09:40.143Z,64.85
2023-01-10T03:12:18.432Z,64.64
2023-01-10T03:14:47.232Z,65.06
2023-01-10T03:17:15.831Z,65.03
2023-01-10T03:19:47.362Z,65.15
2023-01-10T03:22:14.847Z,65.16
2023-01-10T03:24:46.773Z,65.41
2023-01-10T03:27:57.756Z,65.28
2023-01-10T03:30:41.635Z,65.09
2023-01-10T03:33:08.355Z,64.92
2023-01-10T03:35:57.597Z,64.97
2023-01-10T03:38:43.917Z,64.97
2023-01-10T03:41:10.247Z,64.85
2023-01-10T03:44:02.295Z,64.90
2023-01-10T03:46:46.879Z,63.99
2023-01-10T03:49:15.004Z,64.34
2023-01-10T03:51:42.485Z,64.09
2023-01-10T03:54:09.100Z,64.73
2023-01-10T03:56:50.705Z,64.64
2023-01-10T03:59:20.530Z,64.55
2023-01-10T04:01:47.288Z,64.75
2023-01-10T04:04:14.063Z,64.56
2023-01-10T04:06:41.667Z,64.56
2023-01-10T04:09:08.498Z,64.47
2023-01-10T04:11:35.031Z,64.33
2023-01-10T04:14:01.424Z,64.61
2023-01-10T04:16:27.858Z,64.52
2023-01-10T04:18:54.299Z,65.03
2023-01-10T04:21:21.191Z,65.25
2023-01-10T04:23:47.684Z,65.43
2023-01-10T04:26:14.212Z,65.39
2023-01-10T04:28:40.701Z,65.54
2023-01-10T04:31:08.093Z,65.51
2023-01-10T04:33:34.583Z,65.31
2023-01-10T04:36:01.045Z,65.39
2023-01-10T04:38:27.456Z,65.29
2023-01-10T04:40:56.237Z,65.78
2023-01-10T04:43:24.168Z,65.85
2023-01-10T04:45:50.788Z,65.78
2023-01-10T04:48:17.472Z,66.44
2023-01-10T04:50:49.338Z,66.46
2023-01-10T04:53:15.685Z,66.64
2023-01-10T04:55:42.350Z,66.51
2023-01-10T04:58:08.780Z,66.60
2023-01-10T05:00:35.103Z,66.84
2023-01-10T05:03:01.561Z,67.03
2023-01-10T05:05:28.509Z,66.72
2023-01-10T05:07:54.860Z,66.59
2023-01-10T05:10:21.187Z,66.90
2023-01-10T05:12:47.574Z,66.53
2023-01-10T05:15:13.952Z,66.57
2023-01-10T05:17:40.709Z,66.27
2023-01-10T05:20:07.493Z,66.16
2023-01-10T05:22:34.054Z,66.08
2023-01-10T05:25:00.556Z,65.83
2023-01-10T05:27:26.920Z,65.70
2023-01-10T05:29:53.315Z,65.99
2023-01-10T05:32:19.747Z,65.84
2023-01-10T05:34:46.089Z,66.18
2023-01-10T05:37:12.498Z,66.09
2023-01-10T05:39:39.981Z,66.13
2023-01-10T05:42:06.426Z,66.31
2023-01-10T05:44:32.789Z,66.74
2023-01-10T05:46:59.153Z,66.91
2023-01-10T05:49:25.503Z,66.78
2023-01-10T05:51:51.956Z,66.86
2023-01-10T05:54:18.704Z,66.78
2023-01-10T05:56:45.025Z,66.32
2023-01-10T05:59:23.751Z,66.38
2023-01-10T06:01:54.121Z,66.34
2023-01-10T06:04:20.523Z,66.24
2023-01-10T06:06:46.855Z,66.07
2023-01-10T06:09:13.166Z,66.04
2023-01-10T06:11:39.640Z,66.40
2023-01-10T06:14:07.687Z,66.29
2023-01-10T06:16:34.094Z,66.11
2023-01-10T06:19:00.479Z,65.93
2023-01-10T06:21:26.866Z,65.87
2023-01-10T06:23:53.276Z,65.99
2023-01-10T06:26:19.667Z,66.11
2023-01-10T06:28:46.080Z,65.86
2023-01-10T06:31:14.826Z,65.86
2023-01-10T06:33:41.580Z,65.76
2023-01-10T06:36:08.653Z,66.00
2023-01-10T06:38:35.117Z,66.19
2023-01-10T06:41:12.834Z,66.02
2023-01-10T06:43:45.307Z,66.14
2023-01-10T06:46:16.685Z,65.94
2023-01-10T06:48:45.445Z,65.98
2023-01-10T06:51:13.686Z,65.75
2023-01-10T06:53:40.550Z,65.87
2023-01-10T06:56:08.813Z,65.58
2023-01-10T06:58:38.474Z,65.81
2023-01-10T07:01:13.893Z,65.70
2023-01-10T07:03:49.555Z,65.77
2023-01-10T07:06:16.164Z,65.84
2023-01-10T07:08:46.793Z,65.79
2023-01-10T07:11:17.624Z,65.84
2023-01-10T07:13:44.167Z,65.99
2023-01-10T07:16:14.256Z,65.92
2023-01-10T07:18:42.229Z,66.25
2023-01-10T07:21:10.011Z,66.23
2023-01-10T07:23:36.745Z,65.95
2023-01-10T07:26:10.151Z,66.09
2023-01-10T07:28:37.283Z,66.19
2023-01-10T07:31:05.785Z,65.59
2023-01-10T07:33:32.360Z,65.52
2023-01-10T07:36:00.578Z,65.98
2023-01-10T07:38:27.126Z,65.57
2023-01-10T07:40:53.571Z,66.04
2023-01-10T07:43:20.003Z,65.86
2023-01-10T07:45:46.834Z,65.76
2023-01-10T07:48:13.227Z,65.95
2023-01-10T07:50:40.034Z,65.76
2023-01-10T07:53:07.604Z,65.72
2023-01-10T07:55:38.747Z,65.79
2023-01-10T07:58:07.872Z,65.92
2023-01-10T08:00:35.262Z,65.71
2023-01-10T08:03:01.998Z,65.77
2023-01-10T08:05:28.640Z,66.03
2023-01-10T08:07:59.807Z,65.92
2023-01-10T08:10:27.191Z,65.80
2023-01-10T08:12:53.592Z,66.08
2023-01-10T08:15:20.121Z,65.83
2023-01-10T08:17:46.610Z,65.80
2023-01-10T08:20:13.000Z,65.90
2023-01-10T08:22:39.426Z,65.77
2023-01-10T08:25:06.146Z,66.03
2023-01-10T08:27:32.599Z,65.71
2023-01-10T08:29:59.580Z,65.82
2023-01-10T08:32:32.093Z,65.54
2023-01-10T08:34:58.468Z,65.47
2023-01-10T08:37:24.840Z,65.54
2023-01-10T08:39:51.227Z,65.92
2023-01-10T08:42:18.691Z,65.80
2023-01-10T08:44:45.215Z,65.92
2023-01-10T08:47:11.669Z,65.65
2023-01-10T08:49:38.000Z,65.80
2023-01-10T08:52:04.440Z,65.76
2023-01-10T08:54:30.881Z,65.40
2023-01-10T08:56:57.201Z,65.49
2023-01-10T08:59:23.530Z,65.81
2023-01-10T09:01:50.011Z,65.55
2023-01-10T09:04:17.208Z,65.39
2023-01-10T09:06:43.641Z,65.58
2023-01-10T09:09:10.276Z,65.61
2023-01-10T09:11:36.708Z,65.42
2023-01-10T09:14:03.110Z,65.66
2023-01-10T09:16:29.504Z,65.45
2023-01-10T09:18:56.260Z,65.12
2023-01-10T09:21:22.669Z,65.20
2023-01-10T09:23:49.076Z,64.75
2023-01-10T09:26:15.431Z,65.23
2023-01-10T09:28:41.848Z,64.91
2023-01-10T09:31:08.887Z,65.07
2023-01-10T09:33:46.204Z,64.48
2023-01-10T09:36:15.333Z,64.65
2023-01-10T09:38:41.926Z,64.50
2023-01-10T09:41:22.809Z,64.75
2023-01-10T09:44:04.741Z,64.62
2023-01-10T09:46:42.754Z,64.66
2023-01-10T09:49:26.867Z,64.82
2023-01-10T09:51:58.907Z,64.49
2023-01-10T09:54:29.259Z,64.81
2023-01-10T09:56:56.397Z,64.69
2023-01-10T09:59:43.125Z,64.62
2023-01-10T10:02:32.724Z,64.61
2023-01-10T10:05:09.890Z,64.51
2023-01-10T10:07:36.811Z,64.29
2023-01-10T10:10:06.016Z,64.56
2023-01-10T10:12:41.449Z,64.53
2023-01-10T10:15:39.309Z,64.37
2023-01-10T10:18:14.772Z,64.02
2023-01-10T10:21:03.344Z,63.94
2023-01-10T10:23:41.540Z,63.75
2023-01-10T10:26:11.040Z,63.90
2023-01-10T10:28:53.884Z,63.36
2023-01-10T10:31:43.020Z,63.35
2023-01-10T10:34:37.460Z,63.79
2023-01-10T10:37:33.770Z,63.47
2023-01-10T10:40:07.783Z,63.67
2023-01-10T10:42:39.796Z,63.58
2023-01-10T10:45:17.373Z,63.16
2023-01-10T10:47:50.341Z,63.52
2023-01-10T10:50:35.710Z,63.67
2023-01-10T10:53:04.098Z,64.07
2023-01-10T10:55:36.463Z,63.97
2023-01-10T10:58:05.465Z,64.09
2023-01-10T11:00:31.974Z,63.86
2023-01-10T11:03:13.068Z,63.91
2023-01-10T11:05:43.176Z,63.74
2023-01-10T11:08:16.180Z,63.79
2023-01-10T11:10:47.010Z,63.37
2023-01-10T11:13:27.567Z,63.81
2023-01-10T11:15:56.091Z,63.37
2023-01-10T11:18:25.975Z,63.27
2023-01-10T11:20:52.400Z,63.29
2023-01-10T11:23:52.958Z,62.98
2023-01-10T11:26:35.752Z,62.56
2023-01-10T11:29:33.846Z,62.63
2023-01-10T11:32:10.060Z,62.45
2023-01-10T11:34:37.552Z,62.64
2023-01-10T11:37:18.008Z,62.69
2023-01-10T11:39:44.586Z,62.21
2023-01-10T11:42:30.752Z,62.15
2023-01-10T11:45:18.696Z,62.00
2023-01-10T11:47:50.422Z,61.89
2023-01-10T11:50:28.742Z,61.99
2023-01-10T11:52:56.437Z,61.92
2023-01-10T11:55:26.326Z,62.19
2023-01-10T11:58:13.591Z,61.96
2023-01-10T12:00:43.865Z,61.97
2023-01-10T12:03:32.711Z,61.86
2023-01-10T12:06:08.299Z,61.65
2023-01-10T12:08:36.853Z,61.43
2023-01-10T12:11:07.057Z,61.35
2023-01-10T12:13:44.568Z,61.27
2023-01-10T12:16:26.156Z,61.37
2023-01-10T12:18:59.905Z,61.21
2023-01-10T12:21:40.828Z,61.18
2023-01-10T12:24:26.625Z,60.98
2023-01-10T12:26:53.784Z,60.92
2023-01-10T12:29:25.432Z,61.08
2023-01-10T12:31:54.706Z,60.90
2023-01-10T12:34:25.261Z,60.92
2023-01-10T12:37:14.693Z,60.58
2023-01-10T12:39:46.735Z,60.68
2023-01-10T12:42:44.737Z,60.55
2023-01-10T12:45:23.669Z,60.24
2023-01-10T12:48:05.502Z,60.39
2023-01-10T12:50:39.024Z,60.63
2023-01-10T12:53:24.747Z,60.10
2023-01-10T12:55:56.681Z,59.79
2023-01-10T12:58:48.213Z,59.94
2023-01-10T13:01:21.591Z,59.92
2023-01-10T13:03:56.064Z,59.66
2023-01-10T13:06:35.147Z,59.88
2023-01-10T13:09:20.044Z,60.10
2023-01-10T13:12:02.396Z,59.97
2023-01-10T13:14:37.469Z,59.83
2023-01-10T13:17:27.970Z,59.92
2023-01-10T13:20:16.225Z,60.00
2023-01-10T13:22:45.056Z,59.95
2023-01-10T13:25:22.303Z,59.84
2023-01-10T13:27:57.411Z,59.92
2023-01-10T13:30:32.274Z,59.95
2023-01-10T13:33:27.570Z,59.75
2023-01-10T13:35:58.566Z,59.70
2023-01-10T13:38:34.583Z,59.90
2023-01-10T13:41:08.466Z,59.74
2023-01-10T13:44:02.183Z,59.87
2023-01-10T13:46:31.705Z,59.96
2023-01-10T13:49:00.287Z,59.89
2023-01-10T13:51:27.923Z,59.86
2023-01-10T13:53:57.136Z,59.80
2023-01-10T13:56:38.518Z,59.69
2023-01-10T13:59:17.521Z,59.48
2023-01-10T14:02:08.339Z,59.68
2023-01-10T14:04:46.486Z,59.58
2023-01-10T14:07:33.456Z,59.79
2023-01-10T14:10:07.387Z,59.61
2023-01-10T14:12:48.847Z,59.84
2023-01-10T14:15:37.162Z,59.92
2023-01-10T14:18:05.835Z,59.84
2023-01-10T14:20:35.331Z,59.46
2023-01-10T14:23:08.241Z,59.88
2023-01-10T14:25:36.754Z,59.87
2023-01-10T14:28:05.351Z,59.64
2023-01-10T14:30:38.433Z,59.74
2023-01-10T14:33:13.751Z,59.48
2023-01-10T14:35:47.097Z,59.67
2023-01-10T14:38:34.937Z,59.76
2023-01-10T14:41:11.480Z,59.48
2023-01-10T14:43:44.608Z,59.49
2023-01-10T14:46:13.646Z,59.36
2023-01-10T14:48:51.943Z,59.41
2023-01-10T14:51:21.533Z,59.47
2023-01-10T14:53:56.572Z,59.64
2023-01-10T14:56:30.364Z,59.66
2023-01-10T14:58:56.821Z,59.48
2023-01-10T15:01:26.827Z,59.55
2023-01-10T15:03:54.238Z,59.51
2023-01-10T15:06:21.068Z,59.58
2023-01-10T15:08:59.662Z,59.64
2023-01-10T15:11:27.904Z,59.50
2023-01-10T15:14:00.122Z,59.70
2023-01-10T15:16:28.594Z,59.37
2023-01-10T15:18:56.465Z,59.44
2023-01-10T15:21:24.291Z,59.37
2023-01-10T15:23:50.752Z,59.43
2023-01-10T15:26:21.522Z,59.36
2023-01-10T15:29:24.139Z,59.14
2023-01-10T15:31:53.308Z,59.33
2023-01-10T15:34:22.804Z,59.25
2023-01-10T15:37:01.836Z,59.06
2023-01-10T15:39:35.560Z,59.02
2023-01-10T15:42:08.430Z,58.84
2023-01-10T15:44:48.504Z,58.79
2023-01-10T15:47:36.246Z,59.04
2023-01-10T15:50:28.283Z,59.22
2023-01-10T15:52:58.781Z,58.94
2023-01-10T15:55:38.655Z,58.99
2023-01-10T15:58:27.465Z,58.88
2023-01-10T16:00:56.320Z,58.56
2023-01-10T16:03:32.004Z,58.80
2023-01-10T16:06:00.138Z,58.54
2023-01-10T16:08:35.279Z,58.61
2023-01-10T16:11:05.258Z,58.24
2023-01-10T16:13:33.093Z,58.24
2023-01-10T16:16:02.141Z,58.10
2023-01-10T16:18:28.742Z,58.05
2023-01-10T16:20:58.476Z,58.20
2023-01-10T16:23:30.370Z,57.93
2023-01-10T16:26:00.154Z,57.81
2023-01-10T16:28:29.005Z,57.67
2023-01-10T16:30:55.377Z,57.46
2023-01-10T16:33:27.662Z,57.70
2023-01-10T16:35:56.401Z,57.34
2023-01-10T16:38:24.030Z,57.33
2023-01-10T16:40:58.894Z,57.49
2023-01-10T16:43:26.944Z,57.47
2023-01-10T16:46:00.020Z,56.94
2023-01-10T16:48:29.064Z,56.98
2023-01-10T16:51:05.600Z,56.89
2023-01-10T16:53:31.982Z,56.49
2023-01-10T16:55:58.420Z,56.43
2023-01-10T16:58:24.865Z,56.57
2023-01-10T17:00:52.432Z,56.51
2023-01-10T17:03:22.663Z,56.62
2023-01-10T17:05:49.759Z,56.51
2023-01-10T17:08:20.596Z,56.09
2023-01-10T17:10:50.956Z,56.26
2023-01-10T17:13:23.437Z,56.05
2023-01-10T17:15:49.916Z,56.01
2023-01-10T17:18:16.320Z,55.87
2023-01-10T17:20:42.746Z,55.89
2023-01-10T17:23:12.031Z,56.13
2023-01-10T17:25:38.515Z,55.84
2023-01-10T17:28:05.069Z,55.79
2023-01-10T17:30:31.559Z,55.70
2023-01-10T17:32:58.611Z,56.00
2023-01-10T17:35:28.337Z,55.87
2023-01-10T17:37:54.921Z,55.79
2023-01-10T17:40:21.313Z,56.04
2023-01-10T17:42:47.677Z,56.00
2023-01-10T17:45:14.259Z,56.21
2023-01-10T17:47:40.612Z,56.18
2023-01-10T17:50:07.152Z,56.31
2023-01-10T17:52:33.538Z,56.55
2023-01-10T17:54:59.913Z,56.57
2023-01-10T17:57:26.335Z,56.59
2023-01-10T17:59:52.710Z,57.01
2023-01-10T18:02:19.288Z,56.99
2023-01-10T18:04:45.909Z,57.23
2023-01-10T18:07:14.684Z,57.57
2023-01-10T18:09:41.093Z,57.51
2023-01-10T18:12:07.650Z,57.78
2023-01-10T18:14:37.313Z,57.91
2023-01-10T18:17:06.531Z,58.11
2023-01-10T18:19:34.412Z,58.17
2023-01-10T18:22:01.209Z,58.78
2023-01-10T18:24:27.582Z,59.12
2023-01-10T18:26:54.271Z,59.31
2023-01-10T18:29:21.058Z,59.53
2023-01-10T18:31:47.385Z,59.50
2023-01-10T18:34:13.734Z,59.77
2023-01-10T18:36:40.949Z,60.04
2023-01-10T18:39:07.267Z,60.16
2023-01-10T18:41:33.609Z,60.41
2023-01-10T18:44:00.636Z,60.44
2023-01-10T18:46:28.494Z,60.75
2023-01-10T18:48:55.025Z,60.66
2023-01-10T18:51:22.867Z,60.96
2023-01-10T18:53:49.353Z,61.10
2023-01-10T18:56:17.047Z,61.51
2023-01-10T18:58:43.958Z,61.49
2023-01-10T19:01:16.767Z,61.48
2023-01-10T19:03:43.587Z,61.74
2023-01-10T19:06:12.347Z,61.93
2023-01-10T19:08:39.439Z,62.04
2023-01-10T19:11:13.971Z,62.14
2023-01-10T19:13:41.650Z,62.04
2023-01-10T19:16:14.016Z,62.08
2023-01-10T19:18:41.045Z,62.51
2023-01-10T19:21:14.751Z,62.62
2023-01-10T19:23:42.410Z,62.63
2023-01-10T19:26:08.830Z,62.75
2023-01-10T19:28:35.534Z,62.98
2023-01-10T19:31:05.008Z,63.00
2023-01-10T19:33:34.999Z,63.06
2023-01-10T19:36:07.867Z,63.15
2023-01-10T19:38:34.886Z,63.76
2023-01-10T19:41:02.134Z,63.75
2023-01-10T19:43:28.924Z,63.92
2023-01-10T19:45:55.630Z,63.76
2023-01-10T19:48:23.238Z,63.64
2023-01-10T19:50:49.689Z,64.00
2023-01-10T19:53:16.069Z,63.92
2023-01-10T19:55:42.465Z,64.07
2023-01-10T19:58:08.985Z,64.00
2023-01-10T20:00:35.346Z,64.08
2023-01-10T20:03:01.796Z,64.55
2023-01-10T20:05:28.301Z,64.51
2023-01-10T20:07:54.650Z,64.44
2023-01-10T20:10:20.996Z,64.44
2023-01-10T20:12:47.616Z,64.71
2023-01-10T20:15:14.008Z,64.61
2023-01-10T20:17:40.851Z,64.50
2023-01-10T20:20:07.835Z,64.45
2023-01-10T20:22:34.166Z,64.31
2023-01-10T20:25:00.826Z,64.75
2023-01-10T20:27:28.239Z,64.55
2023-01-10T20:29:54.631Z,64.43
2023-01-10T20:32:21.888Z,64.25
2023-01-10T20:34:49.531Z,64.25
2023-01-10T20:37:15.967Z,64.40
2023-01-10T20:39:42.340Z,64.17
2023-01-10T20:42:08.757Z,64.26
2023-01-10T20:44:35.226Z,64.37
2023-01-10T20:47:01.643Z,64.61
2023-01-10T20:49:28.180Z,64.10
2023-01-10T20:51:54.666Z,64.52
2023-01-10T20:54:21.273Z,64.21
2023-01-10T20:56:47.703Z,64.13
2023-01-10T20:59:14.124Z,64.15
2023-01-10T21:01:40.646Z,63.97
2023-01-10T21:04:07.630Z,63.76
2023-01-10T21:06:35.302Z,64.08
2023-01-10T21:09:02.864Z,64.17
2023-01-10T21:11:29.192Z,64.11
2023-01-10T21:13:55.507Z,63.99
2023-01-10T21:16:22.482Z,64.32
2023-01-10T21:18:49.125Z,64.08
2023-01-10T21:21:18.098Z,64.51
2023-01-10T21:23:45.008Z,64.65
2023-01-10T21:26:13.517Z,64.24
2023-01-10T21:28:42.403Z,64.56
2023-01-10T21:31:10.193Z,64.77
2023-01-10T21:33:37.103Z,64.77
2023-01-10T21:36:04.686Z,65.05
2023-01-10T21:38:32.410Z,65.21
2023-01-10T21:41:07.132Z,64.99
2023-01-10T21:43:33.611Z,65.13
2023-01-10T21:46:00.776Z,65.41
2023-01-10T21:48:28.926Z,65.37
2023-01-10T21:50:55.557Z,65.58
2023-01-10T21:53:22.672Z,65.39
2023-01-10T21:55:49.078Z,65.68
2023-01-10T21:58:15.449Z,66.08
2023-01-10T22:00:41.843Z,66.16
2023-01-10T22:03:08.265Z,66.03
2023-01-10T22:05:34.626Z,66.01
2023-01-10T22:08:00.964Z,66.30
2023-01-10T22:10:27.351Z,65.85
2023-01-10T22:12:53.791Z,66.18
2023-01-10T22:15:20.625Z,66.14
2023-01-10T22:17:48.222Z,66.41
2023-01-10T22:20:16.592Z,66.49
2023-01-10T22:22:42.945Z,66.24
2023-01-10T22:25:09.580Z,66.41
2023-01-10T22:27:35.937Z,66.01
2023-01-10T22:30:02.278Z,66.22
2023-01-10T22:32:28.665Z,66.08
2023-01-10T22:34:55.115Z,66.34
2023-01-10T22:37:21.499Z,66.25
2023-01-10T22:39:48.716Z,66.44
2023-01-10T22:42:15.153Z,66.17
2023-01-10T22:44:41.521Z,65.88
2023-01-10T22:47:08.613Z,65.94
2023-01-10T22:49:34.924Z,66.12
2023-01-10T22:52:01.326Z,66.07
2023-01-10T22:54:27.683Z,65.98
2023-01-10T22:56:54.031Z,66.01
2023-01-10T22:59:20.467Z,66.12
2023-01-10T23:01:46.780Z,66.28
2023-01-10T23:04:13.168Z,66.26
2023-01-10T23:06:39.842Z,66.30
2023-01-10T23:09:06.201Z,66.43
2023-01-10T23:11:32.524Z,66.47
2023-01-10T23:13:58.951Z,66.63
2023-01-10T23:16:32.612Z,66.68
2023-01-10T23:18:59.907Z,66.61
2023-01-10T23:21:29.120Z,66.92
2023-01-10T23:23:55.833Z,66.65
2023-01-10T23:26:22.692Z,66.87
2023-01-10T23:28:50.853Z,66.94
2023-01-10T23:31:19.611Z,66.79
2023-01-10T23:33:46.482Z,66.83
2023-01-10T23:36:12.927Z,66.89
2023-01-10T23:38:39.355Z,66.82
2023-01-10T23:41:06.411Z,67.13
2023-01-10T23:43:32.820Z,67.37
2023-01-10T23:45:59.322Z,67.08
2023-01-10T23:48:25.810Z,67.10
2023-01-10T23:50:52.325Z,66.96
2023-01-10T23:53:18.773Z,67.13
2023-01-10T23:55:45.437Z,66.92
2023-01-10T23:58:12.113Z,67.08
